Time;durP1;ratioP1;P1;durP2;ratioP2;P2;SDS_P1;SDS_P2;PMS_P1;PMS_P2;Temp;Humidity;BMP_temperature;BMP_pressure;BME280_temperature;BME280_humidity;BME280_pressure;Samples;Min_cycle;Max_cycle;Signal;HPM_P1;HPM_P2
2022/06/13 00:00:25;;;;;;;14.18;4.68;;;17.00;99.90;;;;;;4986799;28;25060;-62
2022/06/13 00:02:51;;;;;;;12.93;4.38;;;17.00;99.90;;;;;;4986690;28;25070;-62
2022/06/13 00:05:17;;;;;;;20.88;4.90;;;17.00;99.90;;;;;;4984836;28;25072;-62
2022/06/13 00:07:43;;;;;;;20.33;6.00;;;17.00;99.90;;;;;;4986978;28;25101;-61
2022/06/13 00:10:11;;;;;;;11.50;4.78;;;17.00;99.90;;;;;;4986602;28;25051;-62
2022/06/13 00:12:38;;;;;;;14.15;4.88;;;16.90;99.90;;;;;;4986929;28;25107;-63
2022/06/13 00:15:05;;;;;;;15.30;5.05;;;16.90;99.90;;;;;;4987246;28;25089;-62
2022/06/13 00:17:30;;;;;;;17.30;5.07;;;16.90;99.90;;;;;;4986395;28;25045;-62
2022/06/13 00:19:56;;;;;;;12.73;4.40;;;16.90;99.90;;;;;;4982888;28;25063;-60
2022/06/13 00:22:21;;;;;;;11.90;4.93;;;16.90;99.90;;;;;;4986547;28;25107;-60
2022/06/13 00:24:47;;;;;;;17.95;6.32;;;16.90;99.90;;;;;;4986815;28;25079;-62
2022/06/13 00:27:12;;;;;;;27.30;5.72;;;16.80;99.90;;;;;;4986307;28;25054;-62
2022/06/13 00:29:39;;;;;;;12.07;4.97;;;16.90;99.90;;;;;;4986703;28;25061;-61
2022/06/13 00:32:05;;;;;;;25.00;4.60;;;17.00;99.90;;;;;;4986521;28;25063;-62
2022/06/13 00:34:31;;;;;;;18.63;4.88;;;17.00;99.90;;;;;;4984356;28;25105;-62
2022/06/13 00:36:57;;;;;;;18.98;5.38;;;16.90;99.90;;;;;;4985194;28;25068;-61
2022/06/13 00:39:23;;;;;;;20.35;6.00;;;16.90;99.90;;;;;;4986943;28;25052;-63
2022/06/13 00:41:49;;;;;;;17.25;5.55;;;17.00;99.90;;;;;;4983837;28;25137;-62
2022/06/13 00:44:22;;;;;;;24.48;5.93;;;16.90;99.90;;;;;;4986260;28;25069;-62
2022/06/13 00:46:48;;;;;;;21.60;6.18;;;16.90;99.90;;;;;;4984831;28;25142;-61
2022/06/13 00:49:24;;;;;;;22.45;5.45;;;16.90;99.90;;;;;;4987451;28;25139;-62
2022/06/13 00:52:12;;;;;;;22.88;6.70;;;17.00;99.90;;;;;;4984143;28;25056;-61
2022/06/13 00:54:41;;;;;;;23.73;6.45;;;17.00;99.90;;;;;;4983900;28;25062;-62
2022/06/13 00:57:12;;;;;;;22.83;6.07;;;17.00;99.90;;;;;;4986623;28;25055;-62
2022/06/13 00:59:39;;;;;;;17.67;6.33;;;17.00;99.90;;;;;;4984616;28;25075;-60
2022/06/13 01:02:06;;;;;;;26.02;6.03;;;16.80;99.90;;;;;;4993235;28;25105;-62
2022/06/13 01:04:32;;;;;;;23.02;6.72;;;16.80;99.90;;;;;;4982457;28;25083;-62
2022/06/13 01:07:00;;;;;;;18.80;6.70;;;16.60;99.90;;;;;;4987098;28;25103;-61
2022/06/13 01:12:14;;;;;;;18.25;6.18;;;16.60;99.90;;;;;;4986466;28;25062;-61
2022/06/13 01:15:06;;;;;;;25.88;7.90;;;16.60;99.90;;;;;;4986313;28;25063;-62
2022/06/13 01:17:46;;;;;;;23.02;5.88;;;16.70;99.90;;;;;;4977183;28;25059;-62
2022/06/13 01:20:16;;;;;;;20.83;6.45;;;16.70;99.90;;;;;;4990077;28;25116;-62
2022/06/13 01:23:16;;;;;;;25.48;6.95;;;16.70;99.90;;;;;;4993672;28;25146;-63
2022/06/13 01:25:42;;;;;;;27.42;6.90;;;16.50;99.90;;;;;;4990394;28;25105;-63
2022/06/13 01:28:24;;;;;;;22.23;7.15;;;16.60;99.90;;;;;;4996981;28;25085;-61
2022/06/13 01:31:08;;;;;;;25.63;6.95;;;16.70;99.90;;;;;;4997966;28;25114;-62
2022/06/13 01:33:42;;;;;;;21.40;6.57;;;16.50;99.90;;;;;;4985645;28;25189;-62
2022/06/13 01:36:26;;;;;;;21.83;6.22;;;16.50;99.90;;;;;;4985128;28;25063;-62
2022/06/13 01:39:07;;;;;;;18.40;5.25;;;16.40;99.90;;;;;;4986233;28;25104;-62
2022/06/13 01:42:00;;;;;;;29.83;8.23;;;16.40;99.90;;;;;;4985142;28;25062;-62
2022/06/13 01:44:32;;;;;;;25.67;7.13;;;16.30;99.90;;;;;;4985696;28;25130;-62
2022/06/13 01:47:31;;;;;;;20.85;5.95;;;16.30;99.90;;;;;;4981195;28;25107;-62
2022/06/13 01:50:10;;;;;;;25.27;6.78;;;16.40;99.90;;;;;;4984880;28;25099;-61
2022/06/13 01:53:16;;;;;;;23.65;5.95;;;16.30;99.90;;;;;;4983299;28;25083;-63
2022/06/13 01:55:52;;;;;;;24.85;7.35;;;16.20;99.90;;;;;;4983934;28;25058;-62
2022/06/13 01:58:51;;;;;;;25.48;6.72;;;16.30;99.90;;;;;;4981206;28;25076;-62
2022/06/13 02:01:23;;;;;;;27.88;7.20;;;16.30;99.90;;;;;;4985178;28;25150;-61
2022/06/13 02:03:58;;;;;;;28.05;7.05;;;16.30;99.90;;;;;;4989800;28;25147;-61
2022/06/13 02:06:31;;;;;;;20.23;6.85;;;16.40;99.90;;;;;;4986011;28;25077;-62
2022/06/13 02:09:15;;;;;;;27.85;6.65;;;16.40;99.90;;;;;;4989696;28;25071;-63
2022/06/13 02:11:49;;;;;;;22.65;7.40;;;16.40;99.90;;;;;;4988960;28;25168;-62
2022/06/13 02:14:17;;;;;;;20.65;6.50;;;16.20;99.90;;;;;;4986449;28;25071;-62
2022/06/13 02:16:58;;;;;;;27.27;6.53;;;16.20;99.90;;;;;;4988554;28;25174;-62
2022/06/13 02:19:48;;;;;;;26.60;6.70;;;16.10;99.90;;;;;;4990219;28;25107;-62
2022/06/13 02:22:23;;;;;;;24.45;7.25;;;16.10;99.90;;;;;;4981365;28;25073;-63
2022/06/13 02:25:18;;;;;;;21.52;7.05;;;16.10;99.90;;;;;;4987745;28;25063;-62
2022/06/13 02:27:49;;;;;;;22.08;7.15;;;16.20;99.90;;;;;;4988939;28;25061;-62
2022/06/13 02:30:19;;;;;;;25.65;7.85;;;16.20;99.90;;;;;;4987632;28;25074;-62
2022/06/13 02:32:48;;;;;;;19.40;7.20;;;16.30;99.90;;;;;;4988746;28;25129;-62
2022/06/13 02:35:42;;;;;;;21.13;6.80;;;16.30;99.90;;;;;;4981812;28;25102;-62
2022/06/13 02:38:37;;;;;;;25.30;7.78;;;16.30;99.90;;;;;;4983706;28;25080;-62
2022/06/13 02:41:13;;;;;;;26.85;7.82;;;16.20;99.90;;;;;;4982780;28;25111;-63
2022/06/13 02:43:46;;;;;;;27.85;9.23;;;16.10;99.90;;;;;;4982341;28;25075;-61
2022/06/13 02:46:41;;;;;;;22.50;8.45;;;16.00;99.90;;;;;;4989794;28;25111;-62
2022/06/13 02:49:09;;;;;;;32.20;7.53;;;16.10;99.90;;;;;;4987820;28;25149;-62
2022/06/13 02:51:53;;;;;;;22.52;7.05;;;16.20;99.90;;;;;;4989954;28;25130;-61
2022/06/13 02:54:31;;;;;;;21.35;6.78;;;16.20;99.90;;;;;;4995538;28;25092;-61
2022/06/13 02:57:32;;;;;;;32.17;8.10;;;16.20;99.90;;;;;;4986381;28;25073;-62
2022/06/13 03:00:20;;;;;;;24.02;8.05;;;15.90;99.90;;;;;;4984828;28;25093;-61
2022/06/13 03:03:05;;;;;;;32.83;7.72;;;15.90;99.90;;;;;;4981379;28;25091;-63
2022/06/13 03:05:51;;;;;;;23.95;6.45;;;15.90;99.90;;;;;;4983150;28;25056;-60
2022/06/13 03:08:31;;;;;;;29.15;8.10;;;15.90;99.90;;;;;;4989554;28;25080;-61
2022/06/13 03:11:24;;;;;;;25.95;6.53;;;15.80;99.90;;;;;;4991668;28;25087;-62
2022/06/13 03:14:08;;;;;;;20.30;5.78;;;15.80;99.90;;;;;;4988318;28;25147;-63
2022/06/13 03:16:54;;;;;;;20.88;6.32;;;15.80;99.90;;;;;;4986135;28;25169;-61
2022/06/13 03:19:38;;;;;;;23.13;5.93;;;15.80;99.90;;;;;;4987166;28;25154;-61
2022/06/13 03:22:14;;;;;;;13.50;4.97;;;15.80;99.90;;;;;;4989645;28;25106;-61
2022/06/13 03:25:01;;;;;;;19.02;5.65;;;15.70;99.90;;;;;;4989174;28;25108;-62
2022/06/13 03:27:35;;;;;;;18.63;5.35;;;15.70;99.90;;;;;;4991127;28;25062;-62
2022/06/13 03:30:32;;;;;;;21.83;6.32;;;15.80;99.90;;;;;;4991667;28;25082;-62
2022/06/13 03:35:51;;;;;;;15.52;4.22;;;15.70;99.90;;;;;;4986139;28;25074;-62
2022/06/13 03:38:27;;;;;;;20.00;4.72;;;15.80;99.90;;;;;;4989396;28;25061;-61
2022/06/13 03:40:57;;;;;;;15.27;4.45;;;15.80;99.90;;;;;;4988712;28;24808;-60
2022/06/13 03:43:32;;;;;;;18.35;4.35;;;15.80;99.90;;;;;;4987134;28;25095;-61
2022/06/13 03:46:13;;;;;;;17.00;4.22;;;15.80;99.90;;;;;;4979754;28;25169;-62
2022/06/13 03:48:47;;;;;;;15.23;4.15;;;15.90;99.90;;;;;;4981662;28;25106;-63
2022/06/13 03:51:37;;;;;;;10.80;3.53;;;15.80;99.90;;;;;;4989375;28;25051;-62
2022/06/13 03:54:08;;;;;;;9.40;3.42;;;15.80;99.90;;;;;;4982643;28;25152;-61
2022/06/13 03:56:45;;;;;;;13.00;3.85;;;15.80;99.90;;;;;;4989037;28;25059;-61
2022/06/13 03:59:23;;;;;;;9.77;3.28;;;15.90;99.90;;;;;;4987377;28;25102;-62
2022/06/13 04:01:55;;;;;;;14.15;3.90;;;15.90;99.90;;;;;;4988903;28;25058;-61
2022/06/13 04:04:24;;;;;;;9.35;3.03;;;15.80;99.90;;;;;;4993273;28;25069;-63
2022/06/13 04:06:50;;;;;;;12.18;3.42;;;15.80;99.90;;;;;;4987440;28;25080;-62
2022/06/13 04:09:21;;;;;;;14.07;4.03;;;15.80;99.90;;;;;;4987615;28;25065;-61
2022/06/13 04:12:08;;;;;;;14.23;3.28;;;15.80;99.90;;;;;;4990628;28;25066;-61
2022/06/13 04:15:10;;;;;;;16.05;3.72;;;15.80;99.90;;;;;;4988051;28;25058;-61
2022/06/13 04:17:48;;;;;;;13.23;3.45;;;15.80;99.90;;;;;;4974477;28;25065;-60
2022/06/13 04:20:30;;;;;;;17.27;3.65;;;15.80;99.90;;;;;;4999263;28;25095;-62
2022/06/13 04:23:10;;;;;;;11.05;3.10;;;15.80;99.90;;;;;;4991470;28;25156;-61
2022/06/13 04:25:38;;;;;;;14.48;4.18;;;15.80;99.90;;;;;;4997322;28;25053;-63
2022/06/13 04:28:28;;;;;;;10.30;3.22;;;15.90;99.90;;;;;;4996123;28;25068;-61
2022/06/13 04:30:56;;;;;;;14.02;4.50;;;15.90;99.90;;;;;;5000989;28;25088;-61
2022/06/13 04:34:11;;;;;;;17.80;3.83;;;15.90;99.90;;;;;;4988437;28;25052;-61
2022/06/13 04:36:38;;;;;;;17.73;3.95;;;15.80;99.90;;;;;;4927102;29;25102;-60
2022/06/13 04:39:07;;;;;;;12.25;3.75;;;15.80;99.90;;;;;;4926824;29;25070;-61
2022/06/13 04:41:35;;;;;;;12.48;3.55;;;15.70;99.90;;;;;;4954141;28;25076;-62
2022/06/13 04:44:04;;;;;;;17.83;3.70;;;15.80;99.90;;;;;;4991195;28;25134;-61
2022/06/13 04:46:31;;;;;;;8.63;3.28;;;15.70;99.90;;;;;;4987751;28;25058;-61
2022/06/13 04:49:01;;;;;;;8.60;3.00;;;15.70;99.90;;;;;;4987014;28;25099;-62
2022/06/13 04:51:37;;;;;;;9.45;3.00;;;15.70;99.90;;;;;;4992758;28;25138;-60
2022/06/13 04:54:11;;;;;;;9.93;2.50;;;15.70;99.90;;;;;;4985532;28;25063;-61
2022/06/13 04:56:37;;;;;;;9.00;2.72;;;15.70;99.90;;;;;;4986256;28;25093;-61
2022/06/13 04:59:04;;;;;;;8.10;2.50;;;15.70;99.90;;;;;;4986687;28;25067;-62
2022/06/13 05:01:33;;;;;;;10.05;2.63;;;15.70;99.90;;;;;;4987270;28;25191;-60
2022/06/13 05:04:03;;;;;;;9.60;2.20;;;15.70;99.90;;;;;;4980415;28;25131;-63
2022/06/13 05:06:45;;;;;;;6.95;2.25;;;15.70;99.90;;;;;;4986849;28;25168;-61
2022/06/13 05:09:10;;;;;;;13.30;2.80;;;15.70;99.90;;;;;;4987549;28;25082;-61
2022/06/13 05:11:43;;;;;;;12.70;2.40;;;15.70;99.90;;;;;;4987998;28;25072;-62
2022/06/13 05:14:14;;;;;;;15.65;3.17;;;15.70;99.90;;;;;;4982629;28;25151;-62
2022/06/13 05:17:10;;;;;;;8.10;2.38;;;15.70;99.90;;;;;;4988458;28;25092;-61
2022/06/13 05:19:38;;;;;;;11.77;2.60;;;15.80;99.90;;;;;;4984017;28;25136;-62
2022/06/13 05:22:26;;;;;;;11.10;2.63;;;15.90;99.90;;;;;;4983002;28;25058;-63
2022/06/13 05:25:14;;;;;;;14.23;2.42;;;15.90;99.90;;;;;;4986910;28;25161;-61
2022/06/13 05:27:39;;;;;;;8.75;2.53;;;16.10;99.90;;;;;;5000603;28;25074;-61
2022/06/13 05:30:05;;;;;;;7.68;1.80;;;16.30;99.90;;;;;;4985813;28;25142;-63
2022/06/13 05:32:31;;;;;;;7.85;2.72;;;16.40;99.90;;;;;;4985755;28;25074;-60
2022/06/13 05:34:57;;;;;;;9.95;2.53;;;16.30;99.90;;;;;;4981509;28;25072;-61
2022/06/13 05:37:23;;;;;;;12.02;2.42;;;16.20;99.90;;;;;;4985829;28;25074;-62
2022/06/13 05:39:49;;;;;;;11.10;2.50;;;16.20;99.90;;;;;;4984418;28;25137;-62
2022/06/13 05:42:15;;;;;;;10.23;2.30;;;16.30;99.90;;;;;;4986097;28;25076;-62
2022/06/13 05:44:41;;;;;;;13.30;2.75;;;16.30;99.90;;;;;;4984089;28;25101;-62
2022/06/13 05:47:19;;;;;;;18.13;2.35;;;16.20;99.90;;;;;;4988670;28;25078;-62
2022/06/13 05:49:46;;;;;;;12.13;3.17;;;16.20;99.90;;;;;;4984224;28;25130;-61
2022/06/13 05:52:12;;;;;;;10.93;2.60;;;16.30;99.90;;;;;;4987189;28;25087;-62
2022/06/13 05:54:38;;;;;;;11.15;3.00;;;16.30;99.90;;;;;;4992541;28;25104;-60
2022/06/13 05:57:04;;;;;;;13.02;3.03;;;16.10;99.90;;;;;;4987410;28;25148;-61
2022/06/13 05:59:29;;;;;;;6.80;2.40;;;16.00;99.90;;;;;;4984661;28;25064;-61
2022/06/13 06:01:55;;;;;;;11.48;3.13;;;16.10;99.90;;;;;;4987014;28;25076;-61
2022/06/13 06:04:20;;;;;;;10.82;2.50;;;16.10;99.90;;;;;;4987629;28;25057;-63
2022/06/13 06:06:46;;;;;;;6.28;2.75;;;16.20;99.90;;;;;;4986043;28;25071;-61
2022/06/13 06:09:13;;;;;;;9.18;2.75;;;16.30;99.90;;;;;;4984300;28;25052;-62
2022/06/13 06:11:39;;;;;;;10.98;2.17;;;16.30;99.90;;;;;;4984687;28;25127;-61
2022/06/13 06:14:04;;;;;;;9.60;2.67;;;16.40;99.90;;;;;;4991636;28;25054;-62
2022/06/13 06:16:30;;;;;;;7.82;2.40;;;16.40;99.90;;;;;;4996653;28;25066;-61
2022/06/13 06:18:56;;;;;;;12.07;2.28;;;16.70;99.90;;;;;;4984710;28;25082;-62
2022/06/13 06:21:23;;;;;;;8.20;2.10;;;17.00;99.90;;;;;;4984948;28;25081;-64
2022/06/13 06:23:48;;;;;;;7.63;1.95;;;17.10;99.90;;;;;;4981390;28;25060;-62
2022/06/13 06:26:16;;;;;;;8.43;2.00;;;17.10;99.90;;;;;;4983972;28;25068;-60
2022/06/13 06:28:42;;;;;;;7.95;2.08;;;16.90;99.90;;;;;;4984600;28;25051;-63
2022/06/13 06:31:10;;;;;;;4.82;1.73;;;16.50;99.90;;;;;;4986762;28;25081;-60
2022/06/13 06:33:35;;;;;;;7.78;2.08;;;16.30;99.90;;;;;;4988383;28;25054;-61
2022/06/13 06:36:01;;;;;;;7.55;1.80;;;16.30;99.90;;;;;;4998193;28;25144;-63
2022/06/13 06:38:28;;;;;;;6.07;1.55;;;16.40;99.90;;;;;;4982143;28;25082;-62
2022/06/13 06:40:53;;;;;;;7.35;2.03;;;16.20;99.90;;;;;;4979168;28;25071;-62
2022/06/13 06:43:19;;;;;;;8.35;1.92;;;16.40;99.90;;;;;;4981365;28;25078;-61
2022/06/13 06:45:45;;;;;;;7.88;1.75;;;16.60;99.90;;;;;;4981841;28;25062;-64
2022/06/13 06:48:16;;;;;;;6.40;2.00;;;16.50;99.90;;;;;;4988516;28;25102;-63
2022/06/13 06:50:44;;;;;;;8.30;2.28;;;16.60;99.90;;;;;;4987800;28;25067;-61
2022/06/13 06:53:11;;;;;;;8.95;2.28;;;16.70;99.90;;;;;;4991623;28;25183;-60
2022/06/13 07:01:17;;;;;;;10.32;2.65;;;17.50;99.90;;;;;;4993353;28;25102;-62
2022/06/13 07:03:43;;;;;;;6.93;1.80;;;17.70;99.90;;;;;;4988676;28;25071;-61
2022/06/13 07:06:10;;;;;;;8.60;1.67;;;17.70;97.70;;;;;;4988508;28;25076;-61
2022/06/13 07:08:36;;;;;;;7.63;1.52;;;17.40;98.00;;;;;;4989414;28;25055;-63
2022/06/13 07:13:50;;;;;;;5.65;1.67;;;17.50;98.50;;;;;;4983032;28;25139;-61
2022/06/13 07:16:16;;;;;;;7.68;1.90;;;17.20;99.00;;;;;;4996443;28;25085;-61
2022/06/13 07:18:41;;;;;;;10.63;1.85;;;17.10;99.90;;;;;;4985963;28;25070;-61
2022/06/13 07:21:08;;;;;;;8.45;1.48;;;16.60;99.90;;;;;;4989519;28;25081;-62
2022/06/13 07:23:34;;;;;;;11.65;1.92;;;16.40;99.90;;;;;;4984620;28;25058;-63
2022/06/13 07:26:00;;;;;;;6.38;1.80;;;16.70;99.90;;;;;;4988700;28;25092;-63
2022/06/13 07:28:26;;;;;;;6.93;1.65;;;17.10;99.90;;;;;;4986279;28;25046;-62
2022/06/13 07:30:52;;;;;;;5.88;1.60;;;17.40;99.00;;;;;;4983981;28;25140;-62
2022/06/13 07:33:18;;;;;;;7.80;1.90;;;18.00;97.50;;;;;;4984555;28;25081;-63
2022/06/13 07:35:43;;;;;;;6.85;1.80;;;18.00;93.70;;;;;;4992589;28;25086;-62
2022/06/13 07:38:16;;;;;;;15.82;3.38;;;18.00;95.50;;;;;;4983902;28;25125;-60
2022/06/13 07:40:44;;;;;;;5.43;1.98;;;17.50;98.30;;;;;;4983399;28;25163;-61
2022/06/13 07:43:26;;;;;;;7.93;1.67;;;17.20;99.60;;;;;;4993923;28;25102;-61
2022/06/13 07:45:52;;;;;;;6.43;1.50;;;17.10;99.20;;;;;;4989663;28;25063;-61
2022/06/13 07:48:18;;;;;;;6.90;1.58;;;17.70;98.60;;;;;;4986075;28;25063;-62
2022/06/13 07:50:44;;;;;;;7.82;1.95;;;18.10;93.90;;;;;;4982170;28;25090;-62
2022/06/13 07:53:09;;;;;;;10.13;1.73;;;18.30;94.00;;;;;;4984502;28;25077;-61
2022/06/13 07:55:36;;;;;;;5.53;1.33;;;18.00;92.80;;;;;;4983035;28;25070;-61
2022/06/13 07:58:03;;;;;;;8.82;1.50;;;17.80;93.10;;;;;;4981124;28;25062;-61
2022/06/13 08:00:35;;;;;;;7.53;1.70;;;18.20;91.00;;;;;;4987937;28;25103;-63
2022/06/13 08:03:01;;;;;;;4.68;1.45;;;18.20;90.70;;;;;;4984943;28;25109;-63
2022/06/13 08:05:31;;;;;;;8.73;2.38;;;18.50;88.00;;;;;;4986417;28;25073;-61
2022/06/13 08:07:57;;;;;;;5.60;1.90;;;18.30;85.40;;;;;;4981157;28;25072;-61
2022/06/13 08:10:23;;;;;;;7.85;1.55;;;18.10;82.90;;;;;;4984996;28;25076;-62
2022/06/13 08:12:49;;;;;;;11.00;1.77;;;18.40;85.90;;;;;;4987820;28;25144;-63
2022/06/13 08:15:15;;;;;;;5.03;1.35;;;18.00;82.70;;;;;;4993140;28;25073;-61
2022/06/13 08:17:41;;;;;;;5.30;1.35;;;17.60;87.30;;;;;;4985769;28;25054;-62
2022/06/13 08:20:08;;;;;;;6.88;1.60;;;17.60;91.20;;;;;;4988375;28;25073;-60
2022/06/13 08:22:40;;;;;;;4.85;1.30;;;17.60;90.40;;;;;;4981171;28;25060;-61
2022/06/13 08:25:05;;;;;;;4.82;1.33;;;17.50;92.80;;;;;;4981767;28;25133;-62
2022/06/13 08:27:31;;;;;;;10.77;1.55;;;17.30;94.90;;;;;;4985267;28;25083;-58
2022/06/13 08:29:56;;;;;;;10.07;1.60;;;17.70;93.60;;;;;;4984485;28;25072;-62
2022/06/13 08:32:22;;;;;;;6.28;1.77;;;18.10;92.40;;;;;;4982614;28;25132;-62
2022/06/13 08:34:49;;;;;;;7.38;2.20;;;18.00;90.50;;;;;;4989734;28;25136;-61
2022/06/13 08:37:15;;;;;;;5.53;1.65;;;17.30;90.40;;;;;;4984142;28;25068;-62
2022/06/13 08:39:40;;;;;;;9.77;1.85;;;17.20;94.40;;;;;;4982589;28;25063;-61
2022/06/13 08:42:17;;;;;;;5.80;1.60;;;17.60;93.10;;;;;;4990640;28;25061;-62
2022/06/13 08:44:47;;;;;;;5.93;1.48;;;17.70;92.10;;;;;;4997320;28;25083;-62
2022/06/13 08:47:36;;;;;;;3.53;1.25;;;18.10;88.40;;;;;;4987168;28;25079;-63
2022/06/13 08:50:30;;;;;;;7.00;1.00;;;17.80;84.50;;;;;;4984899;28;25079;-61
2022/06/13 08:53:02;;;;;;;7.68;1.27;;;17.10;87.70;;;;;;4981726;28;25167;-63
2022/06/13 08:55:38;;;;;;;5.63;1.30;;;16.80;93.00;;;;;;4983060;28;25051;-60
2022/06/13 08:58:12;;;;;;;8.18;1.73;;;17.00;94.60;;;;;;4987024;28;25117;-61
2022/06/13 09:00:45;;;;;;;4.35;1.20;;;17.20;93.00;;;;;;4990906;28;25061;-62
2022/06/13 09:03:18;;;;;;;5.07;1.60;;;17.10;92.80;;;;;;4983237;28;25077;-62
2022/06/13 09:06:17;;;;;;;3.10;1.42;;;17.10;91.90;;;;;;4982641;28;25109;-63
2022/06/13 09:09:00;;;;;;;4.20;1.20;;;17.60;94.40;;;;;;4985547;28;25051;-60
2022/06/13 09:11:34;;;;;;;4.03;0.95;;;18.10;82.10;;;;;;4985740;28;25073;-61
2022/06/13 09:14:04;;;;;;;5.70;1.38;;;18.80;83.20;;;;;;4979307;28;25062;-64
2022/06/13 09:16:33;;;;;;;5.60;1.50;;;19.50;72.40;;;;;;4984148;28;25108;-63
2022/06/13 09:19:17;;;;;;;5.22;1.30;;;19.70;62.70;;;;;;4989402;28;25131;-62
2022/06/13 09:21:47;;;;;;;6.82;1.30;;;18.70;70.30;;;;;;4993911;28;25103;-61
2022/06/13 09:24:35;;;;;;;5.53;1.35;;;17.70;85.50;;;;;;4986080;28;25089;-61
2022/06/13 09:27:07;;;;;;;5.35;1.65;;;17.30;91.20;;;;;;4981343;28;25074;-60
2022/06/13 09:30:13;;;;;;;5.22;1.42;;;17.30;92.70;;;;;;4980270;28;25181;-61
2022/06/13 09:32:53;;;;;;;4.15;1.30;;;17.60;90.00;;;;;;4983964;28;24847;-61
2022/06/13 09:35:19;;;;;;;4.20;1.02;;;18.40;83.40;;;;;;4984392;28;25150;-61
2022/06/13 09:37:48;;;;;;;3.78;1.67;;;18.50;73.00;;;;;;4985769;28;25070;-62
2022/06/13 09:40:25;;;;;;;3.88;1.20;;;18.80;61.50;;;;;;4985283;28;25105;-63
2022/06/13 09:43:09;;;;;;;3.28;1.20;;;19.10;60.90;;;;;;4981897;28;25085;-64
2022/06/13 09:45:47;;;;;;;11.30;1.85;;;19.80;61.30;;;;;;4982177;28;25047;-60
2022/06/13 09:48:41;;;;;;;5.55;1.40;;;20.50;60.30;;;;;;4983796;28;25083;-61
2022/06/13 09:51:20;;;;;;;4.80;1.25;;;19.90;57.90;;;;;;4982848;28;25198;-62
2022/06/13 09:54:01;;;;;;;5.90;1.40;;;19.00;71.40;;;;;;4985833;28;25084;-65
2022/06/13 09:56:38;;;;;;;5.50;1.65;;;18.70;73.20;;;;;;4986057;28;25073;-61
2022/06/13 09:59:32;;;;;;;5.80;1.70;;;19.00;70.90;;;;;;4978513;28;25076;-61
2022/06/13 10:02:35;;;;;;;7.22;1.65;;;19.20;68.30;;;;;;4986888;28;25049;-61
2022/06/13 10:05:36;;;;;;;6.15;1.80;;;19.70;69.70;;;;;;4984833;28;25113;-62
2022/06/13 10:08:12;;;;;;;6.20;1.48;;;18.50;59.40;;;;;;4999259;28;25070;-60
2022/06/13 10:11:03;;;;;;;8.02;1.40;;;18.30;77.40;;;;;;4985235;28;25073;-62
2022/06/13 10:14:22;;;;;;;11.73;1.63;;;18.80;69.00;;;;;;4981137;28;25059;-62
2022/06/13 10:17:06;;;;;;;7.93;1.35;;;19.20;70.10;;;;;;4932504;28;25066;-61
2022/06/13 10:19:54;;;;;;;4.28;1.10;;;18.00;80.80;;;;;;4989695;28;25176;-61
2022/06/13 10:22:32;;;;;;;4.07;1.40;;;17.60;90.20;;;;;;4993508;28;25144;-61
2022/06/13 10:25:20;;;;;;;5.93;1.80;;;18.30;90.70;;;;;;4987745;28;25072;-62
2022/06/13 10:28:11;;;;;;;4.05;1.25;;;19.00;78.70;;;;;;4979972;28;25079;-64
2022/06/13 10:31:06;;;;;;;9.07;1.48;;;18.70;55.10;;;;;;4984909;28;25076;-61
2022/06/13 10:33:37;;;;;;;6.50;1.08;;;17.90;63.40;;;;;;4976420;28;25140;-62
2022/06/13 10:36:39;;;;;;;1.50;0.82;;;18.60;52.70;;;;;;4980518;28;25158;-61
2022/06/13 10:39:05;;;;;;;4.95;1.13;;;19.50;48.90;;;;;;4981240;28;25083;-63
2022/06/13 10:41:36;;;;;;;4.85;0.90;;;19.80;32.60;;;;;;4983874;28;25074;-61
2022/06/13 10:44:03;;;;;;;5.97;1.17;;;19.60;33.10;;;;;;4983115;28;25068;-61
2022/06/13 10:46:28;;;;;;;3.17;1.60;;;18.80;44.90;;;;;;4985992;28;25054;-65
2022/06/13 10:49:04;;;;;;;6.38;1.40;;;18.40;54.20;;;;;;4990404;28;25058;-62
2022/06/13 10:51:30;;;;;;;5.55;1.67;;;18.20;57.90;;;;;;4987860;28;25150;-62
2022/06/13 10:54:09;;;;;;;4.20;1.38;;;18.60;62.70;;;;;;4986559;28;25058;-62
2022/06/13 10:56:43;;;;;;;17.00;1.77;;;19.20;61.20;;;;;;4985969;28;25055;-63
2022/06/13 10:59:28;;;;;;;6.40;1.88;;;18.40;61.50;;;;;;4984756;28;25056;-60
2022/06/13 11:02:00;;;;;;;4.28;1.55;;;18.00;58.30;;;;;;4988025;28;25057;-61
2022/06/13 11:04:27;;;;;;;4.97;1.45;;;18.50;53.30;;;;;;4987079;28;25128;-63
2022/06/13 11:06:57;;;;;;;10.52;1.58;;;18.30;52.00;;;;;;4986740;28;25056;-61
2022/06/13 11:09:36;;;;;;;4.82;1.40;;;18.70;54.70;;;;;;4986998;28;25136;-62
2022/06/13 11:12:05;;;;;;;6.50;1.40;;;19.40;48.80;;;;;;4986301;28;25058;-61
2022/06/13 11:14:30;;;;;;;11.63;1.80;;;19.60;40.90;;;;;;4978563;28;25149;-61
2022/06/13 11:22:39;;;;;;;4.57;1.15;;;19.50;36.50;;;;;;4987214;28;25073;-63
2022/06/13 11:25:21;;;;;;;4.35;1.38;;;19.40;30.00;;;;;;4986695;28;25077;-62
2022/06/13 11:27:48;;;;;;;;;;;19.40;31.70;;;;;;4984214;28;25094;-62
2022/06/13 11:30:26;;;;;;;4.78;1.95;;;18.80;33.10;;;;;;4987604;28;25066;-60
2022/06/13 11:33:19;;;;;;;6.65;1.50;;;17.80;40.70;;;;;;4985548;28;25057;-62
2022/06/13 11:35:54;;;;;;;7.90;1.80;;;17.50;48.90;;;;;;4985988;28;25105;-61
2022/06/13 11:38:35;;;;;;;5.28;1.60;;;17.90;38.70;;;;;;4981067;28;25144;-61
2022/06/13 11:41:17;;;;;;;6.70;1.48;;;18.80;37.00;;;;;;4986173;28;25097;-60
2022/06/13 11:43:58;;;;;;;7.70;1.73;;;19.20;25.70;;;;;;4985939;28;25110;-60
2022/06/13 11:46:26;;;;;;;6.05;1.50;;;19.90;20.00;;;;;;4986242;28;25122;-63
2022/06/13 11:48:53;;;;;;;3.10;1.23;;;20.20;17.70;;;;;;4984877;28;25054;-61
2022/06/13 11:51:26;;;;;;;14.10;1.95;;;20.40;12.30;;;;;;4987425;28;25063;-61
2022/06/13 11:53:53;;;;;;;9.35;1.42;;;19.50;4.80;;;;;;4987041;28;25110;-60
2022/06/13 11:56:26;;;;;;;5.30;1.48;;;18.70;16.00;;;;;;4987352;28;25066;-60
2022/06/13 11:58:54;;;;;;;4.35;1.65;;;18.60;25.60;;;;;;4988592;28;25085;-62
2022/06/13 12:01:29;;;;;;;4.57;1.48;;;19.70;23.80;;;;;;4991951;28;25096;-64
2022/06/13 12:04:03;;;;;;;6.43;1.75;;;20.30;14.50;;;;;;4986692;28;25049;-62
2022/06/13 12:06:34;;;;;;;7.78;1.65;;;19.90;6.90;;;;;;4987786;28;25083;-61
2022/06/13 12:09:12;;;;;;;4.88;1.27;;;19.40;11.70;;;;;;5001797;28;25110;-61
2022/06/13 12:11:47;;;;;;;3.88;1.20;;;19.50;21.60;;;;;;4987534;28;25086;-62
2022/06/13 12:14:13;;;;;;;6.47;1.35;;;19.50;12.90;;;;;;4983182;28;25057;-60
2022/06/13 12:16:56;;;;;;;8.10;1.70;;;19.00;12.70;;;;;;4984253;28;25086;-62
2022/06/13 12:19:44;;;;;;;5.28;1.30;;;19.20;15.60;;;;;;4986753;28;25137;-61
2022/06/13 12:22:19;;;;;;;4.47;1.48;;;19.70;13.30;;;;;;4985717;28;25140;-59
2022/06/13 12:24:59;;;;;;;4.03;1.30;;;19.50;11.60;;;;;;4984746;28;25096;-61
2022/06/13 12:27:33;;;;;;;11.40;2.03;;;20.10;11.50;;;;;;4985587;28;25061;-60
2022/06/13 12:29:59;;;;;;;6.18;1.70;;;20.20;7.70;;;;;;4984068;28;25055;-62
2022/06/13 12:33:00;;;;;;;12.55;1.77;;;19.40;7.90;;;;;;4988377;28;25095;-61
2022/06/13 12:35:44;;;;;;;4.45;1.67;;;19.20;16.10;;;;;;4991311;28;25089;-62
2022/06/13 12:38:35;;;;;;;4.65;1.83;;;19.50;16.20;;;;;;4990096;28;25057;-62
2022/06/13 12:41:20;;;;;;;5.28;1.30;;;19.10;12.70;;;;;;4987804;28;25088;-61
2022/06/13 12:44:01;;;;;;;6.78;1.70;;;19.50;10.60;;;;;;4984680;28;25132;-61
2022/06/13 12:46:57;;;;;;;2.92;1.25;;;19.60;5.90;;;;;;4985104;28;25083;-62
2022/06/13 12:49:50;;;;;;;6.30;1.75;;;19.50;7.60;;;;;;4985349;28;25057;-62
2022/06/13 12:52:31;;;;;;;8.95;1.60;;;19.30;4.20;;;;;;4984891;28;25097;-61
2022/06/13 12:55:32;;;;;;;7.30;1.23;;;19.40;8.10;;;;;;4984272;28;25062;-62
2022/06/13 12:58:17;;;;;;;4.05;0.98;;;20.00;6.50;;;;;;4986744;28;25053;-61
2022/06/13 13:01:02;;;;;;;4.97;1.35;;;20.20;1.90;;;;;;4983270;28;25055;-61
2022/06/13 13:03:42;;;;;;;4.15;1.35;;;20.30;1.00;;;;;;4983964;28;25117;-63
2022/06/13 13:06:14;;;;;;;6.80;1.70;;;19.20;9.30;;;;;;4985310;28;25067;-61
2022/06/13 13:08:46;;;;;;;6.78;1.50;;;19.20;13.70;;;;;;4981545;28;25178;-61
2022/06/13 13:11:30;;;;;;;5.97;1.90;;;19.30;9.00;;;;;;4985522;28;25112;-63
2022/06/13 13:14:05;;;;;;;6.82;1.48;;;19.40;8.80;;;;;;4985556;28;25081;-62
2022/06/13 13:17:07;;;;;;;6.70;1.85;;;19.20;11.30;;;;;;4997649;28;25084;-61
2022/06/13 13:19:44;;;;;;;4.47;1.37;;;19.00;12.40;;;;;;4992449;28;25180;-60
2022/06/13 13:22:21;;;;;;;8.30;1.48;;;18.40;21.40;;;;;;4986091;28;25121;-61
2022/06/13 13:25:07;;;;;;;9.35;1.65;;;18.80;23.00;;;;;;4982784;28;25126;-63
2022/06/13 13:27:50;;;;;;;6.45;1.67;;;19.30;19.70;;;;;;4982332;28;25063;-62
2022/06/13 13:30:30;;;;;;;8.13;1.73;;;19.50;20.90;;;;;;4983244;28;25120;-62
2022/06/13 13:33:19;;;;;;;9.10;1.92;;;19.60;24.70;;;;;;4983434;28;25126;-61
2022/06/13 13:36:13;;;;;;;9.30;2.20;;;19.30;25.60;;;;;;4984959;28;25088;-62
2022/06/13 13:38:50;;;;;;;7.28;1.60;;;18.50;30.00;;;;;;4984074;28;25150;-61
2022/06/13 13:41:50;;;;;;;6.85;1.63;;;18.30;30.40;;;;;;4983558;28;25143;-61
2022/06/13 13:44:41;;;;;;;4.55;1.35;;;18.90;22.60;;;;;;4983006;28;25086;-61